首页
METAR-TAF:

METAR-TAF

机场 :

Whiteside County Airport (Jos. H. Bittorf Field)

Sterling / Rock Falls, 伊利诺伊州, 美国

纬度: 41-45N, 经度: 089-40W, 海拔: 197米

当前天气观测

该预报发布于1小时和6分钟前的05:56 UTC
风速5节,风向东南
温度 1°C
湿度 86%
气压 1022 hPa
能見度: 16.1公里
天空无云

METAR: KSQI 170556Z AUTO 14005KT 10SM CLR 01/M01 A3018 RMK AO2 SLP089 T00061011 10006 21022 400561056 58003 FZRANO

时间: 01:02 (07:02 UTC)


TAF: 丢失

超过4000个机场的气象观测和天气预报(METAR&TAF报告)。

可查询的气象台以黄色和红色小点在地图上表示。

将鼠标移到小点上方,可查看气象台名称。

然后点击查看天气观测和预报。

如需切换地图:点击带黑十字的绿色按钮放大地图;点击带横线的绿色按钮缩小地图;或者点击绿色箭头查看邻近地区的地图。


METAR-TAF: